A- A+ FrançaisEnglishEspañol中国

Services sur Internet Soldes sur Internet Des idées de cadeaux Météo Météo aéro

La météo à : Autours de vous St-Nazaire-Montoir Grenoble-Le-Versoud Biarritz-Bayonne-Anglet Pau-Pyrénées

carte TEMSI

Pour illustration, la carte TEMSI n'est pas mise à jour

La météo aéronautique pour les pilotes, la préparation du vol avec les METAR (METeorological Aerodrome Report, message d'observation des conditions météorologiques pour l'aviation) et Les TAF (Terminal Aerodrome Forecast : message de prévision à court terme des conditions météorologiques pour l'aviation). Et les autres ressources comme les VAC (Visual Approch Chart) et les NOTAM (Notice To Airman) pour préprer les vols.

Aéroport Paderborn-Lippstadt (Allemagne) / OACI EDLP/ IATA PAD

L'altitude de l'aéroport Paderborn-Lippstadt est de 213 m = 699 ft. Il est situé à proximité de Paderborn (Allemagne). La météo générale à 5 jours est disponible pour Ahden situé à 1.4 km.

METAR de l'aéroport Paderborn-Lippstadt - EDLP

EDLP 101520Z 16005KT CAVOK 04/M01 Q1022

Décodage du METAR de l'aéroport Paderborn-Lippstadt (DE)

METAR émis par EDLP le mardi 10 décembre 2019 à 15:20 heure TU, il y a 16 minutes.

La visibilité est de supérieure à 10 km = supérieure à 6.2 sm.

La température est de 4°C = 39 °F et le point rosée est de -1°C = 30 °F . Ce qui correspond à 70% d'humidité relative.

Le QNH est de 1022 hPa = 30.18 inHg

Vent de 5 kt = 9 km/h, orienté à 160°.

Pas de nuages.

TAF de l'aéroport Paderborn-Lippstadt - EDLP

EDLP 101100Z 1012/1112 20010KT CAVOK

EDLP 101100Z 1012/1112 20010KT visibilité supérieure à 10km, aucun nuage à une hauteur inférieure à 5000 ft ou sous l'altitude minimale de secteur et aucun cumulonimbus ou cumulus bourgeonnant, quelle que soit leur altitude

Aéroport à proximité de Paderborn-Lippstadt

Météo générale à 5 jours à Ahden (1.4 km)Aéroport Paderborn Haxterberg (14 km)Aéroport Brilon Hochsauerland (24 km)Aéroport Soest Bad Sassendorf (28 km)Aéroport Oerlinghausen (36 km)Aéroport Bielefeld Windelsbleiche (39 km)Aéroport Meschede Schueren (43 km)

VAC de l'aéroport Paderborn-Lippstadt - EDLP

La carte d'approche à vue (VAC Visual Approah Chart) est fournie sans aucune garantie de son actualité. Le pilote est le seul responsable de la vérification de sa validité avant de l'utiliser opérationnellement pour préparer un vol ou l'utiliser lors de sa navigation.

VAC de EDLP

Vue aérienne de l'aéroport Paderborn-Lippstadt

NOTAM de l'aéroport Paderborn-Lippstadt

Les NOTAM sont fournis sans aucune garantie de leur actualité. Le pilote est le seul responsable de la vérification de sa validité avant de l'utiliser opérationnellement pour préparer un vol ou l'utiliser lors de sa navigation.

Pas de NOTAM

Sources des données